createdAt,value
2022-08-28T00:03:33.755Z,99.90
2022-08-28T00:09:12.661Z,99.90
2022-08-28T00:33:07.817Z,99.90
2022-08-28T00:37:27.819Z,99.90
2022-08-28T00:42:33.184Z,99.90
2022-08-28T00:47:35.408Z,99.90
2022-08-28T00:52:38.861Z,99.90
2022-08-28T00:57:43.981Z,99.90
2022-08-28T01:02:45.736Z,99.90
2022-08-28T01:07:50.436Z,99.90
2022-08-28T01:12:53.221Z,99.90
2022-08-28T01:17:59.457Z,99.90
2022-08-28T01:23:08.799Z,99.90
2022-08-28T01:28:13.196Z,99.90
2022-08-28T01:33:15.274Z,99.90
2022-08-28T01:38:21.963Z,99.90
2022-08-28T01:43:30.536Z,99.90
2022-08-28T01:48:35.528Z,99.90
2022-08-28T01:53:38.241Z,99.90
2022-08-28T01:58:41.956Z,99.90
2022-08-28T02:03:43.839Z,99.90
2022-08-28T02:08:46.066Z,99.90
2022-08-28T02:13:50.764Z,99.90
2022-08-28T02:18:52.715Z,99.90
2022-08-28T02:23:54.541Z,99.90
2022-08-28T02:28:57.687Z,99.90
2022-08-28T02:33:59.436Z,99.90
2022-08-28T02:39:01.209Z,99.90
2022-08-28T02:44:04.510Z,99.90
2022-08-28T02:49:06.308Z,99.90
2022-08-28T02:54:08.110Z,99.90
2022-08-28T02:59:11.343Z,99.90
2022-08-28T03:04:38.105Z,99.90
2022-08-28T03:09:40.418Z,99.90
2022-08-28T03:14:43.888Z,99.90
2022-08-28T03:19:45.818Z,99.90
2022-08-28T03:24:47.593Z,99.90
2022-08-28T03:29:50.718Z,99.90
2022-08-28T03:34:52.524Z,99.90
2022-08-28T03:39:54.339Z,99.90
2022-08-28T03:44:57.684Z,99.90
2022-08-28T03:49:59.843Z,99.90
2022-08-28T03:55:01.645Z,99.90
2022-08-28T04:00:07.518Z,99.90
2022-08-28T04:05:10.407Z,99.90
2022-08-28T04:10:12.343Z,99.90
2022-08-28T04:15:15.529Z,99.90
2022-08-28T04:20:17.769Z,99.90
2022-08-28T04:25:19.749Z,99.90
2022-08-28T04:30:23.045Z,99.90
2022-08-28T04:35:24.795Z,99.90
2022-08-28T04:40:26.603Z,99.90
2022-08-28T04:45:29.970Z,99.90
2022-08-28T04:50:31.848Z,99.90
2022-08-28T04:55:53.719Z,99.90
2022-08-28T05:00:57.344Z,99.90
2022-08-28T05:05:59.564Z,99.90
2022-08-28T05:11:10.090Z,99.90
2022-08-28T05:16:13.788Z,99.90
2022-08-28T05:21:17.909Z,99.90
2022-08-28T05:26:20.348Z,99.90
2022-08-28T05:31:24.156Z,99.90
2022-08-28T05:36:32.660Z,99.90
2022-08-28T05:41:35.163Z,99.90
2022-08-28T05:46:40.468Z,99.90
2022-08-28T05:51:43.735Z,99.90
2022-08-28T05:56:46.537Z,99.90
2022-08-28T06:01:49.968Z,99.90
2022-08-28T06:06:51.928Z,99.90
2022-08-28T06:11:54.131Z,99.90
2022-08-28T06:16:57.969Z,99.90
2022-08-28T06:22:06.984Z,99.90
2022-08-28T06:27:09.385Z,99.90
2022-08-28T06:32:12.531Z,99.90
2022-08-28T06:37:14.292Z,99.90
2022-08-28T06:42:16.053Z,99.90
2022-08-28T06:47:19.208Z,99.90
2022-08-28T06:52:21.005Z,99.90
2022-08-28T06:57:22.766Z,99.90
2022-08-28T07:02:28.206Z,99.90
2022-08-28T07:07:31.441Z,99.90
2022-08-28T07:12:33.694Z,99.90
2022-08-28T07:17:36.967Z,99.90
2022-08-28T07:22:39.027Z,99.90
2022-08-28T07:27:40.822Z,99.90
2022-08-28T07:32:43.943Z,99.90
2022-08-28T07:37:45.867Z,99.90
2022-08-28T07:42:47.593Z,99.90
2022-08-28T07:47:50.748Z,99.90
2022-08-28T07:52:52.449Z,99.90
2022-08-28T07:57:54.239Z,99.90
2022-08-28T08:02:58.965Z,99.90
2022-08-28T08:08:00.753Z,99.90
2022-08-28T08:13:02.522Z,99.90
2022-08-28T08:18:06.014Z,99.90
2022-08-28T08:23:07.920Z,99.90
2022-08-28T08:28:09.718Z,99.90
2022-08-28T08:33:12.872Z,99.90
2022-08-28T08:38:14.860Z,99.90
2022-08-28T08:43:18.187Z,99.90
2022-08-28T08:48:28.715Z,99.30
2022-08-28T08:53:40.178Z,98.10
2022-08-28T08:58:45.180Z,97.00
2022-08-28T09:03:55.026Z,96.10
2022-08-28T09:08:59.760Z,95.00
2022-08-28T09:14:08.585Z,94.50
2022-08-28T09:19:17.018Z,95.70
2022-08-28T09:24:22.708Z,94.70
2022-08-28T09:29:28.782Z,94.40
2022-08-28T09:34:38.589Z,92.80
2022-08-28T09:39:40.981Z,92.40
2022-08-28T09:44:59.893Z,90.80
2022-08-28T09:50:18.855Z,89.90
2022-08-28T09:55:27.075Z,87.50
2022-08-28T10:00:33.816Z,83.00
2022-08-28T10:05:43.656Z,80.80
2022-08-28T10:10:50.999Z,77.90
2022-08-28T10:16:08.611Z,78.20
2022-08-28T10:21:18.359Z,74.80
2022-08-28T10:26:33.251Z,74.60
2022-08-28T10:31:40.635Z,71.60
2022-08-28T10:36:51.749Z,69.30
2022-08-28T10:41:57.501Z,69.00
2022-08-28T10:46:59.849Z,68.80
2022-08-28T10:52:07.097Z,69.20
2022-08-28T10:57:21.624Z,70.90
2022-08-28T11:02:25.966Z,69.70
2022-08-28T11:07:34.377Z,68.10
2022-08-28T11:12:41.670Z,68.70
2022-08-28T11:17:43.542Z,65.50
2022-08-28T11:22:51.746Z,67.10
2022-08-28T11:28:43.461Z,66.40
2022-08-28T11:33:46.572Z,64.60
2022-08-28T11:39:20.686Z,63.40
2022-08-28T11:44:42.607Z,64.40
2022-08-28T11:49:45.496Z,62.30
2022-08-28T11:54:56.510Z,63.10
2022-08-28T12:00:10.060Z,62.00
2022-08-28T12:05:48.586Z,63.10
2022-08-28T12:10:58.617Z,62.60
2022-08-28T12:16:05.201Z,61.00
2022-08-28T12:21:14.575Z,62.20
2022-08-28T12:26:24.131Z,61.70
2022-08-28T12:32:05.754Z,61.80
2022-08-28T12:37:24.361Z,60.90
2022-08-28T12:42:31.488Z,58.90
2022-08-28T12:47:35.508Z,58.30
2022-08-28T12:52:48.094Z,59.20
2022-08-28T12:57:51.723Z,58.00
2022-08-28T13:02:56.131Z,58.70
2022-08-28T13:08:00.706Z,59.10
2022-08-28T13:13:06.825Z,58.50
2022-08-28T13:18:08.659Z,57.40
2022-08-28T13:23:28.328Z,56.60
2022-08-28T13:28:36.945Z,58.40
2022-08-28T13:33:38.840Z,58.30
2022-08-28T13:38:40.628Z,60.10
2022-08-28T13:43:46.225Z,62.40
2022-08-28T13:48:47.987Z,61.10
2022-08-28T13:53:50.060Z,59.60
2022-08-28T13:58:57.952Z,59.60
2022-08-28T14:03:59.922Z,59.10
2022-08-28T14:09:01.813Z,58.50
2022-08-28T14:14:05.179Z,58.30
2022-08-28T14:19:07.244Z,57.20
2022-08-28T14:24:09.064Z,57.50
2022-08-28T14:29:14.326Z,55.90
2022-08-28T14:34:18.252Z,55.10
2022-08-28T14:39:20.014Z,56.10
2022-08-28T14:44:24.653Z,55.00
2022-08-28T14:49:26.765Z,54.40
2022-08-28T14:54:28.547Z,52.40
2022-08-28T14:59:32.127Z,52.00
2022-08-28T15:04:34.489Z,50.10
2022-08-28T15:09:38.901Z,51.20
2022-08-28T15:14:54.941Z,52.20
2022-08-28T15:19:58.914Z,52.90
2022-08-28T15:25:00.946Z,51.80
2022-08-28T15:30:05.089Z,52.10
2022-08-28T15:35:07.769Z,52.30
2022-08-28T15:40:10.444Z,50.80
2022-08-28T15:45:13.603Z,51.40
2022-08-28T15:50:16.048Z,49.20
2022-08-28T15:55:21.689Z,50.60
2022-08-28T16:00:24.872Z,52.00
2022-08-28T16:05:31.115Z,52.40
2022-08-28T16:10:33.189Z,52.10
2022-08-28T16:15:36.391Z,53.90
2022-08-28T16:20:38.223Z,53.10
2022-08-28T16:25:41.010Z,55.10
2022-08-28T16:30:44.412Z,53.50
2022-08-28T16:35:54.976Z,53.70
2022-08-28T16:40:58.413Z,55.30
2022-08-28T16:46:16.599Z,53.90
2022-08-28T16:51:18.902Z,55.30
2022-08-28T16:56:20.735Z,55.70
2022-08-28T17:01:24.626Z,56.60
2022-08-28T17:06:29.200Z,55.40
2022-08-28T17:11:31.238Z,57.90
2022-08-28T17:16:35.234Z,59.60
2022-08-28T17:21:37.169Z,60.70
2022-08-28T17:26:39.171Z,60.90
2022-08-28T17:31:42.474Z,57.90
2022-08-28T17:36:44.281Z,56.50
2022-08-28T17:41:46.408Z,55.60
2022-08-28T17:46:49.751Z,55.70
2022-08-28T17:51:51.574Z,55.70
2022-08-28T17:56:54.225Z,56.00
2022-08-28T18:01:57.586Z,57.40
2022-08-28T18:06:59.445Z,58.50
2022-08-28T18:12:01.314Z,59.80
2022-08-28T18:17:04.783Z,62.10
2022-08-28T18:22:07.934Z,64.50
2022-08-28T18:27:10.473Z,66.00
2022-08-28T18:32:13.714Z,67.10
2022-08-28T18:37:15.616Z,68.20
2022-08-28T18:42:17.364Z,68.00
2022-08-28T18:47:20.611Z,70.20
2022-08-28T18:52:22.368Z,68.80
2022-08-28T18:57:25.155Z,69.10
2022-08-28T19:02:28.995Z,69.00
2022-08-28T19:07:30.903Z,68.20
2022-08-28T19:12:32.608Z,68.30
2022-08-28T19:17:36.780Z,69.10
2022-08-28T19:22:39.015Z,69.80
2022-08-28T19:27:41.541Z,70.50
2022-08-28T19:32:46.668Z,70.70
2022-08-28T19:37:48.422Z,70.80
2022-08-28T19:42:50.554Z,71.70
2022-08-28T19:47:53.732Z,71.20
2022-08-28T19:52:55.570Z,70.20
2022-08-28T19:57:57.732Z,70.80
2022-08-28T20:03:01.048Z,69.90
2022-08-28T20:08:03.531Z,68.60
2022-08-28T20:13:05.319Z,67.70
2022-08-28T20:18:08.632Z,67.80
2022-08-28T20:23:10.719Z,67.80
2022-08-28T20:28:13.270Z,68.20
2022-08-28T20:33:16.660Z,68.30
2022-08-28T20:38:18.453Z,68.80
2022-08-28T20:43:20.191Z,69.30
2022-08-28T20:48:23.311Z,70.40
2022-08-28T20:53:37.488Z,70.80
2022-08-28T20:58:39.811Z,71.70
2022-08-28T21:03:42.922Z,72.20
2022-08-28T21:08:44.728Z,73.00
2022-08-28T21:13:46.485Z,73.60
2022-08-28T21:19:12.158Z,74.80
2022-08-28T21:24:13.634Z,75.50
2022-08-28T21:29:15.429Z,76.30
2022-08-28T21:34:19.530Z,77.20
2022-08-28T21:39:21.303Z,76.20
2022-08-28T21:44:23.175Z,74.50
2022-08-28T21:49:26.436Z,74.70
2022-08-28T21:54:28.483Z,73.80
2022-08-28T21:59:33.109Z,73.70
2022-08-28T22:04:40.865Z,74.00
2022-08-28T22:09:43.415Z,74.70
2022-08-28T22:14:45.192Z,75.20
2022-08-28T22:19:48.359Z,76.20
2022-08-28T22:24:50.081Z,77.40
2022-08-28T22:29:51.930Z,78.40
2022-08-28T22:34:55.129Z,79.00
2022-08-28T22:39:56.935Z,80.60
2022-08-28T22:44:58.824Z,81.10
2022-08-28T22:50:01.953Z,81.40
2022-08-28T22:55:04.208Z,81.80
2022-08-28T23:00:11.572Z,83.60
2022-08-28T23:05:15.020Z,84.80
2022-08-28T23:10:17.218Z,86.00
2022-08-28T23:15:21.289Z,87.80
2022-08-28T23:20:24.686Z,90.30
2022-08-28T23:25:27.620Z,93.60
2022-08-28T23:30:29.474Z,94.50
2022-08-28T23:35:32.679Z,94.40
2022-08-28T23:40:35.011Z,96.60
2022-08-28T23:45:39.331Z,97.80
2022-08-28T23:50:43.201Z,97.60
2022-08-28T23:55:45.001Z,98.10
